Terminal Aerodrome Forecast
Issued by NWS Charleston, WV

Current Version | Previous Version | Text Only | Print | Product List | Glossary Off
Versions: 1 2 3 4 5 6 7 8 9 10 11 12 13 14 15 16 17 18 19 20 21 22 23 24 25 26 27 28

000
FTUS41 KRLX 201721
TAFEKN
TAF
KEKN 201721Z 2018/2118 VRB04KT P6SM SKC
     FM210700 VRB03KT 4SM BR FEW001
     FM210800 VRB03KT 2SM BR BKN001
     FM210900 VRB03KT 1/4SM FG VV001
     FM211300 VRB02KT 3SM BR FEW001
     FM211400 VRB03KT P6SM FEW250=

USA.gov is the U.S. government's official web portal to all federal, state and local government web resources and services.